sensor_id;sensor_type;location;lat;lon;timestamp;P1;durP1;ratioP1;P2;durP2;ratioP2
28934;SDS011;16044;52.726;-2.108;2023-08-24T00:00:39;9.63;;;4.70;;
28934;SDS011;16044;52.726;-2.108;2023-08-24T00:03:11;9.85;;;5.32;;
28934;SDS011;16044;52.726;-2.108;2023-08-24T00:05:41;11.40;;;5.30;;
28934;SDS011;16044;52.726;-2.108;2023-08-24T00:08:15;9.10;;;4.68;;
28934;SDS011;16044;52.726;-2.108;2023-08-24T00:10:45;13.18;;;4.82;;
28934;SDS011;16044;52.726;-2.108;2023-08-24T00:13:16;10.70;;;4.68;;
28934;SDS011;16044;52.726;-2.108;2023-08-24T00:15:46;9.88;;;5.43;;
28934;SDS011;16044;52.726;-2.108;2023-08-24T00:18:17;9.23;;;5.53;;
28934;SDS011;16044;52.726;-2.108;2023-08-24T00:20:49;13.98;;;5.80;;
28934;SDS011;16044;52.726;-2.108;2023-08-24T00:23:22;11.95;;;5.80;;
28934;SDS011;16044;52.726;-2.108;2023-08-24T00:25:52;13.57;;;6.10;;
28934;SDS011;16044;52.726;-2.108;2023-08-24T00:28:23;13.30;;;5.68;;
28934;SDS011;16044;52.726;-2.108;2023-08-24T00:30:53;10.18;;;5.03;;
28934;SDS011;16044;52.726;-2.108;2023-08-24T00:33:23;8.43;;;5.93;;
28934;SDS011;16044;52.726;-2.108;2023-08-24T00:35:54;10.52;;;5.10;;
28934;SDS011;16044;52.726;-2.108;2023-08-24T00:38:33;9.82;;;5.30;;
28934;SDS011;16044;52.726;-2.108;2023-08-24T00:41:03;9.98;;;5.38;;
28934;SDS011;16044;52.726;-2.108;2023-08-24T00:43:34;8.63;;;5.30;;
28934;SDS011;16044;52.726;-2.108;2023-08-24T00:46:04;13.75;;;5.70;;
28934;SDS011;16044;52.726;-2.108;2023-08-24T00:48:35;9.20;;;5.20;;
28934;SDS011;16044;52.726;-2.108;2023-08-24T00:51:05;9.20;;;4.82;;
28934;SDS011;16044;52.726;-2.108;2023-08-24T00:53:38;9.23;;;5.25;;
28934;SDS011;16044;52.726;-2.108;2023-08-24T00:56:09;10.25;;;5.13;;
28934;SDS011;16044;52.726;-2.108;2023-08-24T00:58:39;7.75;;;4.65;;
28934;SDS011;16044;52.726;-2.108;2023-08-24T01:01:10;10.23;;;5.32;;
28934;SDS011;16044;52.726;-2.108;2023-08-24T01:03:40;9.57;;;5.00;;
28934;SDS011;16044;52.726;-2.108;2023-08-24T01:06:10;9.75;;;4.72;;
28934;SDS011;16044;52.726;-2.108;2023-08-24T01:08:43;8.77;;;5.10;;
28934;SDS011;16044;52.726;-2.108;2023-08-24T01:11:16;8.40;;;4.78;;
28934;SDS011;16044;52.726;-2.108;2023-08-24T01:13:59;9.50;;;4.95;;
28934;SDS011;16044;52.726;-2.108;2023-08-24T01:16:41;8.48;;;4.90;;
28934;SDS011;16044;52.726;-2.108;2023-08-24T01:22:12;8.93;;;5.03;;
28934;SDS011;16044;52.726;-2.108;2023-08-24T01:25:05;14.05;;;5.50;;
28934;SDS011;16044;52.726;-2.108;2023-08-24T01:27:44;9.30;;;5.40;;
28934;SDS011;16044;52.726;-2.108;2023-08-24T01:30:18;11.02;;;5.35;;
28934;SDS011;16044;52.726;-2.108;2023-08-24T01:32:49;10.70;;;4.93;;
28934;SDS011;16044;52.726;-2.108;2023-08-24T01:35:20;10.93;;;4.93;;
28934;SDS011;16044;52.726;-2.108;2023-08-24T01:37:50;10.05;;;4.75;;
28934;SDS011;16044;52.726;-2.108;2023-08-24T01:40:22;10.80;;;5.28;;
28934;SDS011;16044;52.726;-2.108;2023-08-24T01:43:04;7.20;;;4.60;;
28934;SDS011;16044;52.726;-2.108;2023-08-24T01:45:36;10.10;;;5.05;;
28934;SDS011;16044;52.726;-2.108;2023-08-24T01:48:11;8.93;;;5.22;;
28934;SDS011;16044;52.726;-2.108;2023-08-24T01:50:42;8.10;;;4.75;;
28934;SDS011;16044;52.726;-2.108;2023-08-24T01:53:14;12.15;;;5.13;;
28934;SDS011;16044;52.726;-2.108;2023-08-24T01:55:44;7.80;;;4.75;;
28934;SDS011;16044;52.726;-2.108;2023-08-24T01:58:18;8.43;;;4.78;;
28934;SDS011;16044;52.726;-2.108;2023-08-24T02:00:48;8.75;;;4.43;;
28934;SDS011;16044;52.726;-2.108;2023-08-24T02:03:18;8.55;;;4.72;;
28934;SDS011;16044;52.726;-2.108;2023-08-24T02:05:49;9.15;;;4.68;;
28934;SDS011;16044;52.726;-2.108;2023-08-24T02:08:19;7.95;;;4.50;;
28934;SDS011;16044;52.726;-2.108;2023-08-24T02:10:50;9.00;;;4.53;;
28934;SDS011;16044;52.726;-2.108;2023-08-24T02:13:23;11.02;;;4.93;;
28934;SDS011;16044;52.726;-2.108;2023-08-24T02:16:00;7.65;;;4.72;;
28934;SDS011;16044;52.726;-2.108;2023-08-24T02:18:32;9.15;;;5.22;;
28934;SDS011;16044;52.726;-2.108;2023-08-24T02:21:06;8.13;;;4.95;;
28934;SDS011;16044;52.726;-2.108;2023-08-24T02:23:39;10.90;;;5.00;;
28934;SDS011;16044;52.726;-2.108;2023-08-24T02:26:09;9.20;;;4.65;;
28934;SDS011;16044;52.726;-2.108;2023-08-24T02:28:42;8.40;;;4.72;;
28934;SDS011;16044;52.726;-2.108;2023-08-24T02:31:13;10.68;;;5.10;;
28934;SDS011;16044;52.726;-2.108;2023-08-24T02:33:43;8.38;;;4.80;;
28934;SDS011;16044;52.726;-2.108;2023-08-24T02:36:15;8.93;;;4.82;;
28934;SDS011;16044;52.726;-2.108;2023-08-24T02:38:46;8.70;;;5.00;;
28934;SDS011;16044;52.726;-2.108;2023-08-24T02:41:17;9.40;;;4.95;;
28934;SDS011;16044;52.726;-2.108;2023-08-24T02:43:49;9.90;;;4.43;;
28934;SDS011;16044;52.726;-2.108;2023-08-24T02:46:20;9.63;;;4.72;;
28934;SDS011;16044;52.726;-2.108;2023-08-24T02:48:51;9.10;;;4.57;;
28934;SDS011;16044;52.726;-2.108;2023-08-24T02:51:22;11.02;;;5.03;;
28934;SDS011;16044;52.726;-2.108;2023-08-24T02:53:52;10.32;;;4.55;;
28934;SDS011;16044;52.726;-2.108;2023-08-24T02:56:23;10.57;;;4.82;;
28934;SDS011;16044;52.726;-2.108;2023-08-24T02:58:56;8.23;;;4.53;;
28934;SDS011;16044;52.726;-2.108;2023-08-24T03:01:26;10.88;;;5.10;;
28934;SDS011;16044;52.726;-2.108;2023-08-24T03:03:57;8.80;;;5.10;;
28934;SDS011;16044;52.726;-2.108;2023-08-24T03:06:27;11.35;;;5.03;;
28934;SDS011;16044;52.726;-2.108;2023-08-24T03:08:59;10.60;;;4.57;;
28934;SDS011;16044;52.726;-2.108;2023-08-24T03:11:30;10.02;;;5.20;;
28934;SDS011;16044;52.726;-2.108;2023-08-24T03:14:03;11.02;;;5.35;;
28934;SDS011;16044;52.726;-2.108;2023-08-24T03:16:34;8.90;;;5.60;;
28934;SDS011;16044;52.726;-2.108;2023-08-24T03:19:05;7.50;;;4.85;;
28934;SDS011;16044;52.726;-2.108;2023-08-24T03:21:36;9.23;;;4.88;;
28934;SDS011;16044;52.726;-2.108;2023-08-24T03:24:06;8.68;;;5.05;;
28934;SDS011;16044;52.726;-2.108;2023-08-24T03:26:36;9.93;;;4.97;;
28934;SDS011;16044;52.726;-2.108;2023-08-24T03:29:09;9.75;;;5.43;;
28934;SDS011;16044;52.726;-2.108;2023-08-24T03:31:40;8.90;;;4.97;;
28934;SDS011;16044;52.726;-2.108;2023-08-24T03:34:10;10.73;;;4.80;;
28934;SDS011;16044;52.726;-2.108;2023-08-24T03:36:40;8.85;;;4.75;;
28934;SDS011;16044;52.726;-2.108;2023-08-24T03:39:11;7.43;;;4.93;;
28934;SDS011;16044;52.726;-2.108;2023-08-24T03:41:42;7.97;;;4.80;;
28934;SDS011;16044;52.726;-2.108;2023-08-24T03:44:14;9.82;;;5.15;;
28934;SDS011;16044;52.726;-2.108;2023-08-24T03:46:45;9.35;;;5.13;;
28934;SDS011;16044;52.726;-2.108;2023-08-24T03:49:15;9.73;;;5.68;;
28934;SDS011;16044;52.726;-2.108;2023-08-24T03:51:45;9.13;;;4.78;;
28934;SDS011;16044;52.726;-2.108;2023-08-24T03:54:16;12.45;;;5.68;;
28934;SDS011;16044;52.726;-2.108;2023-08-24T03:56:46;9.15;;;5.18;;
28934;SDS011;16044;52.726;-2.108;2023-08-24T03:59:19;10.85;;;5.85;;
28934;SDS011;16044;52.726;-2.108;2023-08-24T04:01:49;9.93;;;5.65;;
28934;SDS011;16044;52.726;-2.108;2023-08-24T04:04:20;9.68;;;5.50;;
28934;SDS011;16044;52.726;-2.108;2023-08-24T04:06:50;10.55;;;5.53;;
28934;SDS011;16044;52.726;-2.108;2023-08-24T04:09:20;10.07;;;5.20;;
28934;SDS011;16044;52.726;-2.108;2023-08-24T04:11:51;9.00;;;5.22;;
28934;SDS011;16044;52.726;-2.108;2023-08-24T04:14:24;9.13;;;5.70;;
28934;SDS011;16044;52.726;-2.108;2023-08-24T04:16:54;10.27;;;5.20;;
28934;SDS011;16044;52.726;-2.108;2023-08-24T04:19:25;12.48;;;5.45;;
28934;SDS011;16044;52.726;-2.108;2023-08-24T04:21:55;9.13;;;5.53;;
28934;SDS011;16044;52.726;-2.108;2023-08-24T04:24:25;10.02;;;5.60;;
28934;SDS011;16044;52.726;-2.108;2023-08-24T04:26:56;10.07;;;5.18;;
28934;SDS011;16044;52.726;-2.108;2023-08-24T04:29:29;8.18;;;4.93;;
28934;SDS011;16044;52.726;-2.108;2023-08-24T04:31:59;10.00;;;5.25;;
28934;SDS011;16044;52.726;-2.108;2023-08-24T04:34:29;9.38;;;4.63;;
28934;SDS011;16044;52.726;-2.108;2023-08-24T04:37:00;9.48;;;4.88;;
28934;SDS011;16044;52.726;-2.108;2023-08-24T04:39:30;8.27;;;5.10;;
28934;SDS011;16044;52.726;-2.108;2023-08-24T04:42:00;11.63;;;5.43;;
28934;SDS011;16044;52.726;-2.108;2023-08-24T04:44:35;8.73;;;5.00;;
28934;SDS011;16044;52.726;-2.108;2023-08-24T04:47:06;9.68;;;5.28;;
28934;SDS011;16044;52.726;-2.108;2023-08-24T04:49:36;8.05;;;4.25;;
28934;SDS011;16044;52.726;-2.108;2023-08-24T04:52:06;11.10;;;5.00;;
28934;SDS011;16044;52.726;-2.108;2023-08-24T04:54:37;10.20;;;4.53;;
28934;SDS011;16044;52.726;-2.108;2023-08-24T04:57:08;9.55;;;4.97;;
28934;SDS011;16044;52.726;-2.108;2023-08-24T04:59:41;7.45;;;4.70;;
28934;SDS011;16044;52.726;-2.108;2023-08-24T05:02:11;7.75;;;4.70;;
28934;SDS011;16044;52.726;-2.108;2023-08-24T05:04:41;8.73;;;4.55;;
28934;SDS011;16044;52.726;-2.108;2023-08-24T05:07:12;6.82;;;4.07;;
28934;SDS011;16044;52.726;-2.108;2023-08-24T05:09:42;8.82;;;4.50;;
28934;SDS011;16044;52.726;-2.108;2023-08-24T05:12:13;8.02;;;5.03;;
28934;SDS011;16044;52.726;-2.108;2023-08-24T05:14:45;11.32;;;4.63;;
28934;SDS011;16044;52.726;-2.108;2023-08-24T05:17:16;7.78;;;4.00;;
28934;SDS011;16044;52.726;-2.108;2023-08-24T05:19:50;7.93;;;4.70;;
28934;SDS011;16044;52.726;-2.108;2023-08-24T05:22:21;7.75;;;4.63;;
28934;SDS011;16044;52.726;-2.108;2023-08-24T05:24:51;8.13;;;4.45;;
28934;SDS011;16044;52.726;-2.108;2023-08-24T05:27:22;6.10;;;4.03;;
28934;SDS011;16044;52.726;-2.108;2023-08-24T05:29:55;9.13;;;4.72;;
28934;SDS011;16044;52.726;-2.108;2023-08-24T05:32:25;7.90;;;4.60;;
28934;SDS011;16044;52.726;-2.108;2023-08-24T05:34:56;7.63;;;4.50;;
28934;SDS011;16044;52.726;-2.108;2023-08-24T05:37:26;8.48;;;4.53;;
28934;SDS011;16044;52.726;-2.108;2023-08-24T05:39:56;7.68;;;4.28;;
28934;SDS011;16044;52.726;-2.108;2023-08-24T05:42:30;11.95;;;4.60;;
28934;SDS011;16044;52.726;-2.108;2023-08-24T05:45:03;9.40;;;4.95;;
28934;SDS011;16044;52.726;-2.108;2023-08-24T05:47:35;8.82;;;5.38;;
28934;SDS011;16044;52.726;-2.108;2023-08-24T05:50:06;7.13;;;4.65;;
28934;SDS011;16044;52.726;-2.108;2023-08-24T05:52:38;9.35;;;4.82;;
28934;SDS011;16044;52.726;-2.108;2023-08-24T05:55:08;8.93;;;4.85;;
28934;SDS011;16044;52.726;-2.108;2023-08-24T05:57:38;8.10;;;4.90;;
28934;SDS011;16044;52.726;-2.108;2023-08-24T06:00:12;10.30;;;4.97;;
28934;SDS011;16044;52.726;-2.108;2023-08-24T06:02:44;8.38;;;4.72;;
28934;SDS011;16044;52.726;-2.108;2023-08-24T06:05:14;9.88;;;4.97;;
28934;SDS011;16044;52.726;-2.108;2023-08-24T06:07:45;9.88;;;5.28;;
28934;SDS011;16044;52.726;-2.108;2023-08-24T06:10:16;7.90;;;5.10;;
28934;SDS011;16044;52.726;-2.108;2023-08-24T06:12:46;7.43;;;4.78;;
28934;SDS011;16044;52.726;-2.108;2023-08-24T06:15:19;11.00;;;5.35;;
28934;SDS011;16044;52.726;-2.108;2023-08-24T06:17:51;12.43;;;5.47;;
28934;SDS011;16044;52.726;-2.108;2023-08-24T06:20:21;10.15;;;5.40;;
28934;SDS011;16044;52.726;-2.108;2023-08-24T06:22:51;11.10;;;5.60;;
28934;SDS011;16044;52.726;-2.108;2023-08-24T06:25:22;10.63;;;5.78;;
28934;SDS011;16044;52.726;-2.108;2023-08-24T06:27:52;9.27;;;5.20;;
28934;SDS011;16044;52.726;-2.108;2023-08-24T06:30:26;12.57;;;5.10;;
28934;SDS011;16044;52.726;-2.108;2023-08-24T06:32:59;11.40;;;5.30;;
28934;SDS011;16044;52.726;-2.108;2023-08-24T06:35:29;9.20;;;5.40;;
28934;SDS011;16044;52.726;-2.108;2023-08-24T06:38:00;9.60;;;5.20;;
28934;SDS011;16044;52.726;-2.108;2023-08-24T06:40:30;7.45;;;4.97;;
28934;SDS011;16044;52.726;-2.108;2023-08-24T06:43:01;9.55;;;5.50;;
28934;SDS011;16044;52.726;-2.108;2023-08-24T06:45:34;8.27;;;5.10;;
28934;SDS011;16044;52.726;-2.108;2023-08-24T06:48:05;6.53;;;4.53;;
28934;SDS011;16044;52.726;-2.108;2023-08-24T06:50:36;8.40;;;4.55;;
28934;SDS011;16044;52.726;-2.108;2023-08-24T06:53:06;8.85;;;4.28;;
28934;SDS011;16044;52.726;-2.108;2023-08-24T06:55:36;6.38;;;4.43;;
28934;SDS011;16044;52.726;-2.108;2023-08-24T06:58:07;12.23;;;4.22;;
28934;SDS011;16044;52.726;-2.108;2023-08-24T07:00:40;9.05;;;5.03;;
28934;SDS011;16044;52.726;-2.108;2023-08-24T07:03:11;6.03;;;3.92;;
28934;SDS011;16044;52.726;-2.108;2023-08-24T07:05:41;7.35;;;4.15;;
28934;SDS011;16044;52.726;-2.108;2023-08-24T07:08:12;6.88;;;3.95;;
28934;SDS011;16044;52.726;-2.108;2023-08-24T07:10:43;6.82;;;3.85;;
28934;SDS011;16044;52.726;-2.108;2023-08-24T07:13:13;6.80;;;3.78;;
28934;SDS011;16044;52.726;-2.108;2023-08-24T07:15:46;6.28;;;3.20;;
28934;SDS011;16044;52.726;-2.108;2023-08-24T07:18:17;5.03;;;3.10;;
28934;SDS011;16044;52.726;-2.108;2023-08-24T07:20:45;6.72;;;4.03;;
28934;SDS011;16044;52.726;-2.108;2023-08-24T07:23:15;7.40;;;3.58;;
28934;SDS011;16044;52.726;-2.108;2023-08-24T07:25:46;6.78;;;3.38;;
28934;SDS011;16044;52.726;-2.108;2023-08-24T07:28:16;8.60;;;3.42;;
28934;SDS011;16044;52.726;-2.108;2023-08-24T07:30:49;5.90;;;3.25;;
28934;SDS011;16044;52.726;-2.108;2023-08-24T07:33:23;5.72;;;3.72;;
28934;SDS011;16044;52.726;-2.108;2023-08-24T07:35:55;6.68;;;3.53;;
28934;SDS011;16044;52.726;-2.108;2023-08-24T07:38:31;5.45;;;3.10;;
28934;SDS011;16044;52.726;-2.108;2023-08-24T07:41:01;6.93;;;3.10;;
28934;SDS011;16044;52.726;-2.108;2023-08-24T07:43:33;6.97;;;3.03;;
28934;SDS011;16044;52.726;-2.108;2023-08-24T07:46:06;5.30;;;3.40;;
28934;SDS011;16044;52.726;-2.108;2023-08-24T07:48:36;9.40;;;3.45;;
28934;SDS011;16044;52.726;-2.108;2023-08-24T07:51:07;8.05;;;3.30;;
28934;SDS011;16044;52.726;-2.108;2023-08-24T07:53:38;5.72;;;2.80;;
28934;SDS011;16044;52.726;-2.108;2023-08-24T07:56:08;5.13;;;2.63;;
28934;SDS011;16044;52.726;-2.108;2023-08-24T07:58:38;5.95;;;2.70;;
28934;SDS011;16044;52.726;-2.108;2023-08-24T08:01:11;4.25;;;1.90;;
28934;SDS011;16044;52.726;-2.108;2023-08-24T08:03:42;3.03;;;1.55;;
28934;SDS011;16044;52.726;-2.108;2023-08-24T08:06:12;3.00;;;1.45;;
28934;SDS011;16044;52.726;-2.108;2023-08-24T08:08:43;3.70;;;1.10;;
28934;SDS011;16044;52.726;-2.108;2023-08-24T08:11:14;4.78;;;1.10;;
28934;SDS011;16044;52.726;-2.108;2023-08-24T08:13:44;3.40;;;1.40;;
28934;SDS011;16044;52.726;-2.108;2023-08-24T08:16:17;3.28;;;1.10;;
28934;SDS011;16044;52.726;-2.108;2023-08-24T08:18:47;2.80;;;1.17;;
28934;SDS011;16044;52.726;-2.108;2023-08-24T08:21:18;2.60;;;1.23;;
28934;SDS011;16044;52.726;-2.108;2023-08-24T08:23:49;2.75;;;1.23;;
28934;SDS011;16044;52.726;-2.108;2023-08-24T08:26:20;2.80;;;1.20;;
28934;SDS011;16044;52.726;-2.108;2023-08-24T08:28:50;3.65;;;1.20;;
28934;SDS011;16044;52.726;-2.108;2023-08-24T08:31:23;2.85;;;0.90;;
28934;SDS011;16044;52.726;-2.108;2023-08-24T08:33:53;4.15;;;1.23;;
28934;SDS011;16044;52.726;-2.108;2023-08-24T08:36:24;7.07;;;1.60;;
28934;SDS011;16044;52.726;-2.108;2023-08-24T08:38:54;4.93;;;1.27;;
28934;SDS011;16044;52.726;-2.108;2023-08-24T08:41:27;3.70;;;1.10;;
28934;SDS011;16044;52.726;-2.108;2023-08-24T08:44:05;3.10;;;1.10;;
28934;SDS011;16044;52.726;-2.108;2023-08-24T08:46:38;5.68;;;1.10;;
28934;SDS011;16044;52.726;-2.108;2023-08-24T08:49:11;2.30;;;1.13;;
28934;SDS011;16044;52.726;-2.108;2023-08-24T08:51:45;4.10;;;1.20;;
28934;SDS011;16044;52.726;-2.108;2023-08-24T08:54:18;2.40;;;1.30;;
28934;SDS011;16044;52.726;-2.108;2023-08-24T08:56:48;2.88;;;1.33;;
28934;SDS011;16044;52.726;-2.108;2023-08-24T08:59:19;2.70;;;1.40;;
28934;SDS011;16044;52.726;-2.108;2023-08-24T09:01:58;4.78;;;1.70;;
28934;SDS011;16044;52.726;-2.108;2023-08-24T09:04:31;5.40;;;1.50;;
28934;SDS011;16044;52.726;-2.108;2023-08-24T09:07:03;4.05;;;1.65;;
28934;SDS011;16044;52.726;-2.108;2023-08-24T09:09:37;4.38;;;1.50;;
28934;SDS011;16044;52.726;-2.108;2023-08-24T09:12:08;4.78;;;1.75;;
28934;SDS011;16044;52.726;-2.108;2023-08-24T09:14:39;5.30;;;1.70;;
28934;SDS011;16044;52.726;-2.108;2023-08-24T09:17:12;2.90;;;1.52;;
28934;SDS011;16044;52.726;-2.108;2023-08-24T09:19:50;5.53;;;1.95;;
28934;SDS011;16044;52.726;-2.108;2023-08-24T09:22:23;3.55;;;1.70;;
28934;SDS011;16044;52.726;-2.108;2023-08-24T09:24:53;3.55;;;1.70;;
28934;SDS011;16044;52.726;-2.108;2023-08-24T09:27:23;6.80;;;1.50;;
28934;SDS011;16044;52.726;-2.108;2023-08-24T09:29:54;5.10;;;1.83;;
28934;SDS011;16044;52.726;-2.108;2023-08-24T09:32:27;3.00;;;1.65;;
28934;SDS011;16044;52.726;-2.108;2023-08-24T09:35:01;4.50;;;1.77;;
28934;SDS011;16044;52.726;-2.108;2023-08-24T09:37:34;4.70;;;1.80;;
28934;SDS011;16044;52.726;-2.108;2023-08-24T09:40:05;5.50;;;1.52;;
28934;SDS011;16044;52.726;-2.108;2023-08-24T09:42:38;3.05;;;1.40;;
28934;SDS011;16044;52.726;-2.108;2023-08-24T09:45:11;2.88;;;1.40;;
28934;SDS011;16044;52.726;-2.108;2023-08-24T09:47:48;2.08;;;1.30;;
28934;SDS011;16044;52.726;-2.108;2023-08-24T09:50:20;2.80;;;1.58;;
28934;SDS011;16044;52.726;-2.108;2023-08-24T09:52:52;3.75;;;1.60;;
28934;SDS011;16044;52.726;-2.108;2023-08-24T09:55:26;2.38;;;1.73;;
28934;SDS011;16044;52.726;-2.108;2023-08-24T09:58:01;2.50;;;1.38;;
28934;SDS011;16044;52.726;-2.108;2023-08-24T10:00:35;3.70;;;1.60;;
28934;SDS011;16044;52.726;-2.108;2023-08-24T10:03:09;4.53;;;1.92;;
28934;SDS011;16044;52.726;-2.108;2023-08-24T10:05:46;3.53;;;1.90;;
28934;SDS011;16044;52.726;-2.108;2023-08-24T10:08:27;3.60;;;1.70;;
28934;SDS011;16044;52.726;-2.108;2023-08-24T10:11:03;3.63;;;1.40;;
28934;SDS011;16044;52.726;-2.108;2023-08-24T10:13:42;3.42;;;1.50;;
28934;SDS011;16044;52.726;-2.108;2023-08-24T10:16:21;6.40;;;1.88;;
28934;SDS011;16044;52.726;-2.108;2023-08-24T10:18:55;2.53;;;1.42;;
28934;SDS011;16044;52.726;-2.108;2023-08-24T10:21:26;3.38;;;1.52;;
28934;SDS011;16044;52.726;-2.108;2023-08-24T10:23:58;4.50;;;1.77;;
28934;SDS011;16044;52.726;-2.108;2023-08-24T10:26:32;5.20;;;2.20;;
28934;SDS011;16044;52.726;-2.108;2023-08-24T10:29:03;3.38;;;1.67;;
28934;SDS011;16044;52.726;-2.108;2023-08-24T10:31:35;3.40;;;1.40;;
28934;SDS011;16044;52.726;-2.108;2023-08-24T10:34:09;3.70;;;1.73;;
28934;SDS011;16044;52.726;-2.108;2023-08-24T10:36:40;2.00;;;1.27;;
28934;SDS011;16044;52.726;-2.108;2023-08-24T10:39:11;3.10;;;1.30;;
28934;SDS011;16044;52.726;-2.108;2023-08-24T10:41:48;5.43;;;1.15;;
28934;SDS011;16044;52.726;-2.108;2023-08-24T10:44:21;2.67;;;1.33;;
28934;SDS011;16044;52.726;-2.108;2023-08-24T10:47:08;5.00;;;1.20;;
28934;SDS011;16044;52.726;-2.108;2023-08-24T10:49:45;3.15;;;1.00;;
28934;SDS011;16044;52.726;-2.108;2023-08-24T10:52:31;4.63;;;1.20;;
28934;SDS011;16044;52.726;-2.108;2023-08-24T10:55:22;1.80;;;1.05;;
28934;SDS011;16044;52.726;-2.108;2023-08-24T10:57:56;1.95;;;0.90;;
28934;SDS011;16044;52.726;-2.108;2023-08-24T11:00:28;1.77;;;0.90;;
28934;SDS011;16044;52.726;-2.108;2023-08-24T11:03:00;2.17;;;0.90;;
28934;SDS011;16044;52.726;-2.108;2023-08-24T11:05:33;2.22;;;1.00;;
28934;SDS011;16044;52.726;-2.108;2023-08-24T11:08:04;1.60;;;0.75;;
28934;SDS011;16044;52.726;-2.108;2023-08-24T11:10:44;3.65;;;0.80;;
28934;SDS011;16044;52.726;-2.108;2023-08-24T11:13:17;2.60;;;0.90;;
28934;SDS011;16044;52.726;-2.108;2023-08-24T11:15:49;2.08;;;0.90;;
28934;SDS011;16044;52.726;-2.108;2023-08-24T11:18:22;2.13;;;0.90;;
28934;SDS011;16044;52.726;-2.108;2023-08-24T11:21:00;4.20;;;0.80;;
28934;SDS011;16044;52.726;-2.108;2023-08-24T11:23:33;5.25;;;0.90;;
28934;SDS011;16044;52.726;-2.108;2023-08-24T11:26:04;3.30;;;0.70;;
28934;SDS011;16044;52.726;-2.108;2023-08-24T11:28:35;2.47;;;0.77;;
28934;SDS011;16044;52.726;-2.108;2023-08-24T11:31:08;3.05;;;0.60;;
28934;SDS011;16044;52.726;-2.108;2023-08-24T11:33:39;3.13;;;0.68;;
28934;SDS011;16044;52.726;-2.108;2023-08-24T11:36:12;1.83;;;0.80;;
28934;SDS011;16044;52.726;-2.108;2023-08-24T11:38:42;2.03;;;0.63;;
28934;SDS011;16044;52.726;-2.108;2023-08-24T11:41:14;3.58;;;0.70;;
28934;SDS011;16044;52.726;-2.108;2023-08-24T11:43:48;2.10;;;0.75;;
28934;SDS011;16044;52.726;-2.108;2023-08-24T11:46:23;1.80;;;0.95;;
28934;SDS011;16044;52.726;-2.108;2023-08-24T11:48:53;3.28;;;0.90;;
28934;SDS011;16044;52.726;-2.108;2023-08-24T11:51:26;3.08;;;0.90;;
28934;SDS011;16044;52.726;-2.108;2023-08-24T11:54:09;2.95;;;0.98;;
28934;SDS011;16044;52.726;-2.108;2023-08-24T11:56:41;3.65;;;1.00;;
28934;SDS011;16044;52.726;-2.108;2023-08-24T11:59:13;3.03;;;1.00;;
28934;SDS011;16044;52.726;-2.108;2023-08-24T12:01:44;2.30;;;1.27;;
28934;SDS011;16044;52.726;-2.108;2023-08-24T12:04:16;3.00;;;1.40;;
28934;SDS011;16044;52.726;-2.108;2023-08-24T12:06:49;3.15;;;0.98;;
28934;SDS011;16044;52.726;-2.108;2023-08-24T12:09:19;2.60;;;1.10;;
28934;SDS011;16044;52.726;-2.108;2023-08-24T12:11:54;4.30;;;1.27;;
28934;SDS011;16044;52.726;-2.108;2023-08-24T12:16:55;3.92;;;1.33;;
28934;SDS011;16044;52.726;-2.108;2023-08-24T12:19:26;3.08;;;1.20;;
28934;SDS011;16044;52.726;-2.108;2023-08-24T12:21:59;4.20;;;1.30;;
28934;SDS011;16044;52.726;-2.108;2023-08-24T12:24:29;4.18;;;1.13;;
28934;SDS011;16044;52.726;-2.108;2023-08-24T12:26:59;4.22;;;1.10;;
28934;SDS011;16044;52.726;-2.108;2023-08-24T12:29:30;2.65;;;1.08;;
28934;SDS011;16044;52.726;-2.108;2023-08-24T12:32:00;2.15;;;1.08;;
28934;SDS011;16044;52.726;-2.108;2023-08-24T12:34:31;1.63;;;0.73;;
28934;SDS011;16044;52.726;-2.108;2023-08-24T12:37:04;2.35;;;1.23;;
28934;SDS011;16044;52.726;-2.108;2023-08-24T12:39:35;2.42;;;1.23;;
28934;SDS011;16044;52.726;-2.108;2023-08-24T12:42:06;2.85;;;1.40;;
28934;SDS011;16044;52.726;-2.108;2023-08-24T12:44:36;4.22;;;1.90;;
28934;SDS011;16044;52.726;-2.108;2023-08-24T12:47:06;4.90;;;1.77;;
28934;SDS011;16044;52.726;-2.108;2023-08-24T12:49:37;2.80;;;1.67;;
28934;SDS011;16044;52.726;-2.108;2023-08-24T12:52:10;3.70;;;1.60;;
28934;SDS011;16044;52.726;-2.108;2023-08-24T12:54:40;2.65;;;1.70;;
28934;SDS011;16044;52.726;-2.108;2023-08-24T12:57:10;2.63;;;1.58;;
28934;SDS011;16044;52.726;-2.108;2023-08-24T12:59:41;5.28;;;2.05;;
28934;SDS011;16044;52.726;-2.108;2023-08-24T13:02:13;4.40;;;2.50;;
28934;SDS011;16044;52.726;-2.108;2023-08-24T13:04:58;4.30;;;2.50;;
28934;SDS011;16044;52.726;-2.108;2023-08-24T13:07:33;3.85;;;1.65;;
28934;SDS011;16044;52.726;-2.108;2023-08-24T13:10:04;2.88;;;1.35;;
28934;SDS011;16044;52.726;-2.108;2023-08-24T13:12:35;3.92;;;1.90;;
28934;SDS011;16044;52.726;-2.108;2023-08-24T13:15:06;3.10;;;1.20;;
28934;SDS011;16044;52.726;-2.108;2023-08-24T13:17:40;3.90;;;1.45;;
28934;SDS011;16044;52.726;-2.108;2023-08-24T13:20:10;5.32;;;1.52;;
28934;SDS011;16044;52.726;-2.108;2023-08-24T13:22:43;2.90;;;1.40;;
28934;SDS011;16044;52.726;-2.108;2023-08-24T13:25:14;6.75;;;1.80;;
28934;SDS011;16044;52.726;-2.108;2023-08-24T13:27:44;5.63;;;1.60;;
28934;SDS011;16044;52.726;-2.108;2023-08-24T13:30:15;5.15;;;1.60;;
28934;SDS011;16044;52.726;-2.108;2023-08-24T13:32:45;4.47;;;1.85;;
28934;SDS011;16044;52.726;-2.108;2023-08-24T13:35:16;4.85;;;1.70;;
28934;SDS011;16044;52.726;-2.108;2023-08-24T13:37:49;5.10;;;1.63;;
28934;SDS011;16044;52.726;-2.108;2023-08-24T13:40:20;4.47;;;1.98;;
28934;SDS011;16044;52.726;-2.108;2023-08-24T13:42:50;4.80;;;2.08;;
28934;SDS011;16044;52.726;-2.108;2023-08-24T13:45:20;3.40;;;1.77;;
28934;SDS011;16044;52.726;-2.108;2023-08-24T13:47:51;7.22;;;1.88;;
28934;SDS011;16044;52.726;-2.108;2023-08-24T13:50:21;4.57;;;1.92;;
28934;SDS011;16044;52.726;-2.108;2023-08-24T13:52:54;5.90;;;1.92;;
28934;SDS011;16044;52.726;-2.108;2023-08-24T13:55:25;5.80;;;1.80;;
28934;SDS011;16044;52.726;-2.108;2023-08-24T13:57:55;4.35;;;1.77;;
28934;SDS011;16044;52.726;-2.108;2023-08-24T14:00:25;5.95;;;2.30;;
28934;SDS011;16044;52.726;-2.108;2023-08-24T14:02:56;8.20;;;1.83;;
28934;SDS011;16044;52.726;-2.108;2023-08-24T14:05:26;4.85;;;1.90;;
28934;SDS011;16044;52.726;-2.108;2023-08-24T14:07:59;6.30;;;1.95;;
28934;SDS011;16044;52.726;-2.108;2023-08-24T14:10:29;4.95;;;1.70;;
28934;SDS011;16044;52.726;-2.108;2023-08-24T14:13:00;8.45;;;1.90;;
28934;SDS011;16044;52.726;-2.108;2023-08-24T14:15:30;7.47;;;2.15;;
28934;SDS011;16044;52.726;-2.108;2023-08-24T14:18:01;5.82;;;2.13;;
28934;SDS011;16044;52.726;-2.108;2023-08-24T14:20:33;7.63;;;2.05;;
28934;SDS011;16044;52.726;-2.108;2023-08-24T14:23:06;6.07;;;1.60;;
28934;SDS011;16044;52.726;-2.108;2023-08-24T14:25:36;6.30;;;2.00;;
28934;SDS011;16044;52.726;-2.108;2023-08-24T14:28:07;5.35;;;1.52;;
28934;SDS011;16044;52.726;-2.108;2023-08-24T14:30:38;4.55;;;1.50;;
28934;SDS011;16044;52.726;-2.108;2023-08-24T14:33:08;7.28;;;1.60;;
28934;SDS011;16044;52.726;-2.108;2023-08-24T14:35:39;5.93;;;1.85;;
28934;SDS011;16044;52.726;-2.108;2023-08-24T14:38:11;5.07;;;1.80;;
28934;SDS011;16044;52.726;-2.108;2023-08-24T14:40:42;6.78;;;1.92;;
28934;SDS011;16044;52.726;-2.108;2023-08-24T14:43:12;7.47;;;2.60;;
28934;SDS011;16044;52.726;-2.108;2023-08-24T14:45:42;8.05;;;2.40;;
28934;SDS011;16044;52.726;-2.108;2023-08-24T14:48:13;5.05;;;2.10;;
28934;SDS011;16044;52.726;-2.108;2023-08-24T14:50:44;6.93;;;2.10;;
28934;SDS011;16044;52.726;-2.108;2023-08-24T14:53:17;5.82;;;2.33;;
28934;SDS011;16044;52.726;-2.108;2023-08-24T14:55:47;7.22;;;2.25;;
28934;SDS011;16044;52.726;-2.108;2023-08-24T14:58:17;7.15;;;2.20;;
28934;SDS011;16044;52.726;-2.108;2023-08-24T15:00:48;5.78;;;2.15;;
28934;SDS011;16044;52.726;-2.108;2023-08-24T15:03:20;7.32;;;2.00;;
28934;SDS011;16044;52.726;-2.108;2023-08-24T15:05:58;4.85;;;2.03;;